Airfield :
LOGIN :

Register | Disclaimer

   EN    FR    IT 

 










Legend :    VFR   Marginal VFR   IFR   Intensive IFR   Very Intensive IFR
Visi :
Ceiling :
>= 8 km
>= 3000ft
5 to 8 km
1000 to 3000 ft
1500m to 5 km
500 to 1000 ft
800 to 1500m
200 to 500 ft
< 800m
< 200 ft
Symbols :   Thunderstorms  Fog  Heavy snow  Heavy precipitations  Wind > 20 kt
SIGMETs :     Misc.  Thunderstorms  Icing  Turbulence  Mountain Waves  Volcanic Ashes







- Airport Elevation : 53 ft
- IATA code : AGP


LEMG - Malaga

CURRENT METAR :
  • 201430Z 14008KT 090V190 9999 FEW015 27/21 Q1019 NOSIG

EXPIRED METARs :
  • 201400Z 12007KT 070V170 9999 FEW018 28/21 Q1019 NOSIG
  • 201330Z 12007KT 070V160 9999 FEW016 28/21 Q1019 NOSIG
  • 201300Z 12007KT 080V170 9999 SCT020 27/21 Q1020 NOSIG
  • 201230Z 12007KT 080V160 9999 FEW018 SCT035 28/21 Q1020 NOSIG
  • 201200Z 13007KT 090V170 9999 FEW018 SCT034 27/21 Q1020 NOSIG

TAF TAF LEMG
Valid from the 20 at 12:00 until the 21 at 12:00 UTC


201100Z 2012/2112 14008KT 9999 FEW020 TX29/2012Z TN21/2106Z
BECMG 2018/2020 29005KT
BECMG 2108/2110 13008KT
No reported NOTAMs for that airfield.
1 SIGMET reported for the Madrid FIR (LECM) :
 
Embedded thunderstorms
LECM SIGMET 1 VALID 201339/201530 LEVA
LECM MADRID FIR/UIR EMBD TS OBS AT 1339Z WI N3953 W00603 - N41 W00305 - N4119 W00328 - N4039 W00550 - N3953 W00603 TOP FL330 STNR NC=



MET'MAP, your aeronautical weather chart ! - Copyright ORBIFLY December 2007 - Disclaimer

ORBIFLY MET'MAP TEAM :

Programming & Development : Alexandra Zaïnal
Concept & Development : Baudouin d'Aumeries
Co-Development & Prog : Marc-Olivier Méhu
Technical & hardware support : Manuel Goepfert

Contact : metmap@orbifly.com




SOURCES & CREDITS :

   NOAA